Catskill, NY

10:51 AM EDT on April 01, 2015 (GMT -0400)
Catskill, NY.Route 23A | | Change Station
CLOSE
Current Station
Personal Weather Station
Location: Catskill, NY
Elevation: 312 ft
Nearby Weather Stations

Elev 312 ft 42.20 °N, 73.95 °W | Updated 7 minutes ago

Clear
Clear
42.1 °F
Feels Like 38 °F
N
6.3
Wind Variable Wind from West

Today
High -- | Low -- °F
--% Chance of Precip.
Yesterday
High -- | Low -- °F
Precip. -- in
6:38 AM 7:21 PM
Waxing Gibbous, 93% visible
Pressure 30.00 in
Visibility 10.0 miles
Clouds Clear
Windchill 38 °F
Dew Point 9 °F
Humidity 25%
Rainfall 0.00 in
Snow Depth Not available.
UV 4 out of 12
Pollen 4.90 out of 12
Air Quality Not available.
Flu Activity Not available.
METAR KPSF 011354Z AUTO 31009KT 10SM CLR M01/M14 A2997 RMK AO2 SLP158 T10061139

More Conditions Fewer Conditions

Pressure 30.00 in
Visibility 10.0 miles
Clouds Clear
Windchill 38 °F
Dew Point 9 °F
Humidity 25%
Rainfall 0.00 in
Snow Depth Not available.
UV 4 out of 12
Pollen 4.90 out of 12
Air Quality Not available.
Flu Activity Not available.
METAR KPSF 011354Z AUTO 31009KT 10SM CLR M01/M14 A2997 RMK AO2 SLP158 T10061139

More Conditions Fewer Conditions

10-Day Weather Forecast

Almanac

Astronomy

Apr. 01, 2015 Rise Set
Actual Time
Civil Twilight
Nautical Twilight
Astronomical Twilight
Moon
Length of Visible Light
Length of Day
Tomorrow will be .
, % of the Moon is Illuminated

Today's Extremes

State Highs State Lows

Community

WunderPhotos

Upload Photos

1,809,974 photos uploaded!

WunderBlogs® & News

Nearby

Air Quality

  Air Quality AQ Index Pollutant
Not available.

Snow Depth

Station Depth Elevation

Earthquake Activity

City Distance Mag. Time & Date
Minimum magnitude displayed is 2.5.

Coastal Water Temperatures

Place Temperature

Stations

Nearby Weather Stations

Station Location Temp. Windchill Dew Point Humidity Wind Precip. Elev Updated Type